createdAt,value
2018-09-17T00:01:05.661Z,8.03
2018-09-17T00:02:11.386Z,8.04
2018-09-17T00:03:18.098Z,8.07
2018-09-17T00:04:24.318Z,8.02
2018-09-17T00:05:30.526Z,7.97
2018-09-17T00:06:36.250Z,7.95
2018-09-17T00:07:42.458Z,7.97
2018-09-17T00:08:48.675Z,7.97
2018-09-17T00:09:54.885Z,7.94
2018-09-17T00:11:01.103Z,7.92
2018-09-17T00:12:07.808Z,7.87
2018-09-17T00:13:14.015Z,7.83
2018-09-17T00:14:19.736Z,7.80
2018-09-17T00:15:26.451Z,7.77
2018-09-17T00:16:32.658Z,7.75
2018-09-17T00:17:38.872Z,7.73
2018-09-17T00:18:44.589Z,7.70
2018-09-17T00:19:50.808Z,7.69
2018-09-17T00:20:57.019Z,7.63
2018-09-17T00:22:03.227Z,7.64
2018-09-17T00:23:09.933Z,7.68
2018-09-17T00:24:15.646Z,7.68
2018-09-17T00:25:22.357Z,7.68
2018-09-17T00:26:28.061Z,7.66
2018-09-17T00:27:34.782Z,7.62
2018-09-17T00:28:40.498Z,7.60
2018-09-17T00:29:47.281Z,7.60
2018-09-17T00:30:53.423Z,7.58
2018-09-17T00:31:59.114Z,7.60
2018-09-17T00:33:05.830Z,7.61
2018-09-17T00:34:11.536Z,7.59
2018-09-17T00:35:17.764Z,7.54
2018-09-17T00:36:23.963Z,7.51
2018-09-17T00:37:30.740Z,7.51
2018-09-17T00:38:36.373Z,7.50
2018-09-17T00:39:42.578Z,7.48
2018-09-17T00:40:48.792Z,7.44
2018-09-17T00:41:55.487Z,7.40
2018-09-17T00:43:01.205Z,7.36
2018-09-17T00:44:07.900Z,7.37
2018-09-17T00:45:13.629Z,7.38
2018-09-17T00:46:19.820Z,7.38
2018-09-17T00:47:26.033Z,7.39
2018-09-17T00:48:32.722Z,7.37
2018-09-17T00:49:38.445Z,7.36
2018-09-17T00:50:44.641Z,7.39
2018-09-17T00:51:51.342Z,7.41
2018-09-17T00:52:57.052Z,7.36
2018-09-17T00:54:03.762Z,7.32
2018-09-17T00:55:09.461Z,7.29
2018-09-17T00:56:15.660Z,7.24
2018-09-17T00:57:21.864Z,7.22
2018-09-17T00:58:28.064Z,7.22
2018-09-17T00:59:34.270Z,7.22
2018-09-17T01:00:40.981Z,7.21
2018-09-17T01:01:46.675Z,7.20
2018-09-17T01:02:52.890Z,7.19
2018-09-17T01:03:59.082Z,7.16
2018-09-17T01:05:05.279Z,7.11
2018-09-17T01:06:11.488Z,7.07
2018-09-17T01:07:17.687Z,7.04
2018-09-17T01:08:23.889Z,7.03
2018-09-17T01:09:30.596Z,7.03
2018-09-17T01:10:36.792Z,7.08
2018-09-17T01:11:42.493Z,7.15
2018-09-17T01:12:48.693Z,7.18
2018-09-17T01:13:54.891Z,7.16
2018-09-17T01:15:01.072Z,7.14
2018-09-17T01:16:08.276Z,7.11
2018-09-17T01:17:13.966Z,7.09
2018-09-17T01:18:19.665Z,7.05
2018-09-17T01:19:25.868Z,7.03
2018-09-17T01:20:32.073Z,7.03
2018-09-17T01:21:38.787Z,7.02
2018-09-17T01:22:44.448Z,7.02
2018-09-17T01:23:50.652Z,6.97
2018-09-17T01:24:56.840Z,6.97
2018-09-17T01:26:03.053Z,6.98
2018-09-17T01:27:09.731Z,6.93
2018-09-17T01:28:15.918Z,6.89
2018-09-17T01:29:21.626Z,6.89
2018-09-17T01:30:27.827Z,6.95
2018-09-17T01:31:34.094Z,7.01
2018-09-17T01:32:40.702Z,6.97
2018-09-17T01:33:46.393Z,6.95
2018-09-17T01:34:52.593Z,6.92
2018-09-17T01:35:58.795Z,6.85
2018-09-17T01:37:04.982Z,6.77
2018-09-17T01:38:11.661Z,6.74
2018-09-17T01:39:17.371Z,6.75
2018-09-17T01:40:23.550Z,6.75
2018-09-17T01:41:29.737Z,6.75
2018-09-17T01:42:35.941Z,6.76
2018-09-17T01:43:42.108Z,6.81
2018-09-17T01:44:48.297Z,6.87
2018-09-17T01:45:54.506Z,6.91
2018-09-17T01:47:00.684Z,6.92
2018-09-17T01:48:06.871Z,6.89
2018-09-17T01:49:13.557Z,6.83
2018-09-17T01:50:19.732Z,6.76
2018-09-17T01:51:25.430Z,6.77
2018-09-17T01:52:31.610Z,6.74
2018-09-17T01:53:38.281Z,6.73
2018-09-17T01:54:44.472Z,6.73
2018-09-17T01:55:50.678Z,6.75
2018-09-17T01:56:56.350Z,6.78
2018-09-17T01:58:02.538Z,6.74
2018-09-17T01:59:08.729Z,6.69
2018-09-17T02:00:14.908Z,6.64
2018-09-17T02:01:21.098Z,6.58
2018-09-17T02:02:27.287Z,6.56
2018-09-17T02:03:33.466Z,6.53
2018-09-17T02:04:39.659Z,6.51
2018-09-17T02:05:45.841Z,6.46
2018-09-17T02:06:52.031Z,6.47
2018-09-17T02:07:58.714Z,6.48
2018-09-17T02:09:04.425Z,6.51
2018-09-17T02:10:11.078Z,6.50
2018-09-17T02:11:16.775Z,6.50
2018-09-17T02:12:22.955Z,6.46
2018-09-17T02:13:29.132Z,6.51
2018-09-17T02:14:35.808Z,6.53
2018-09-17T02:15:41.487Z,6.54
2018-09-17T02:16:48.172Z,6.45
2018-09-17T02:17:54.341Z,6.42
2018-09-17T02:19:00.038Z,6.42
2018-09-17T02:20:06.742Z,6.42
2018-09-17T02:21:12.890Z,6.38
2018-09-17T02:22:18.597Z,6.38
2018-09-17T02:23:24.762Z,6.43
2018-09-17T02:24:30.954Z,6.47
2018-09-17T02:25:37.143Z,6.45
2018-09-17T02:26:44.316Z,6.44
2018-09-17T02:27:49.491Z,6.45
2018-09-17T02:28:56.167Z,6.42
2018-09-17T02:30:02.359Z,6.42
2018-09-17T02:31:08.526Z,6.46
2018-09-17T02:32:14.715Z,6.41
2018-09-17T02:33:20.880Z,6.37
2018-09-17T02:34:26.561Z,6.33
2018-09-17T02:35:32.752Z,6.32
2018-09-17T02:36:39.416Z,6.28
2018-09-17T02:37:45.587Z,6.27
2018-09-17T02:38:51.775Z,6.27
2018-09-17T02:39:57.460Z,6.31
2018-09-17T02:41:03.625Z,6.33
2018-09-17T02:42:09.823Z,6.32
2018-09-17T02:43:15.986Z,6.28
2018-09-17T02:44:22.663Z,6.23
2018-09-17T02:45:28.839Z,6.29
2018-09-17T02:46:34.527Z,6.28
2018-09-17T02:47:41.273Z,6.20
2018-09-17T02:48:46.871Z,6.15
2018-09-17T02:49:53.042Z,6.20
2018-09-17T02:50:59.732Z,6.32
2018-09-17T02:52:06.415Z,6.30
2018-09-17T02:53:12.072Z,6.30
2018-09-17T02:54:17.755Z,6.30
2018-09-17T02:55:23.953Z,6.28
2018-09-17T02:56:30.112Z,6.25
2018-09-17T02:57:36.283Z,6.17
2018-09-17T02:58:42.454Z,6.16
2018-09-17T02:59:49.135Z,6.16
2018-09-17T03:00:54.816Z,6.20
2018-09-17T03:02:00.991Z,6.18
2018-09-17T03:03:07.657Z,6.18
2018-09-17T03:04:13.826Z,6.18
2018-09-17T03:05:20.014Z,6.13
2018-09-17T03:06:25.695Z,6.13
2018-09-17T03:07:31.863Z,6.17
2018-09-17T03:08:38.533Z,6.26
2018-09-17T03:09:44.701Z,6.33
2018-09-17T03:10:50.876Z,6.37
2018-09-17T03:11:56.554Z,6.44
2018-09-17T03:13:02.728Z,6.46
2018-09-17T03:14:09.385Z,6.37
2018-09-17T03:15:15.547Z,6.29
2018-09-17T03:16:21.234Z,6.26
2018-09-17T03:17:27.720Z,6.27
2018-09-17T03:18:34.073Z,6.20
2018-09-17T03:19:39.751Z,6.15
2018-09-17T03:20:45.922Z,6.10
2018-09-17T03:21:52.591Z,6.05
2018-09-17T03:22:58.769Z,6.02
2018-09-17T03:24:04.439Z,5.98
2018-09-17T03:25:10.609Z,5.94
2018-09-17T03:26:16.781Z,5.94
2018-09-17T03:27:22.978Z,5.93
2018-09-17T03:28:29.126Z,6.01
2018-09-17T03:29:35.289Z,6.06
2018-09-17T03:30:41.471Z,6.11
2018-09-17T03:31:47.641Z,6.11
2018-09-17T03:32:53.810Z,6.11
2018-09-17T03:34:00.473Z,6.05
2018-09-17T03:35:06.140Z,5.99
2018-09-17T03:36:12.803Z,5.93
2018-09-17T03:37:18.480Z,5.93
2018-09-17T03:38:24.668Z,5.92
2018-09-17T03:39:31.329Z,5.92
2018-09-17T03:40:36.996Z,5.90
2018-09-17T03:41:43.662Z,5.88
2018-09-17T03:42:49.829Z,5.87
2018-09-17T03:43:55.495Z,5.85
2018-09-17T03:45:01.660Z,5.81
2018-09-17T03:46:08.359Z,5.80
2018-09-17T03:47:14.010Z,5.78
2018-09-17T03:48:20.164Z,5.77
2018-09-17T03:49:26.327Z,5.75
2018-09-17T03:50:32.983Z,5.77
2018-09-17T03:51:39.292Z,5.85
2018-09-17T03:52:45.333Z,5.89
2018-09-17T03:53:51.001Z,5.90
2018-09-17T03:54:57.189Z,5.86
2018-09-17T03:56:03.829Z,5.77
2018-09-17T03:57:09.499Z,5.74
2018-09-17T03:58:15.669Z,5.70
2018-09-17T03:59:21.830Z,5.64
2018-09-17T04:00:28.494Z,5.62
2018-09-17T04:01:34.658Z,5.70
2018-09-17T04:02:40.821Z,5.80
2018-09-17T04:03:46.491Z,5.88
2018-09-17T04:04:53.155Z,5.93
2018-09-17T04:05:58.819Z,5.95
2018-09-17T04:07:04.978Z,5.96
2018-09-17T04:08:11.156Z,5.88
2018-09-17T04:09:17.305Z,5.80
2018-09-17T04:10:24.472Z,5.77
2018-09-17T04:11:30.132Z,5.69
2018-09-17T04:12:35.819Z,5.63
2018-09-17T04:13:41.967Z,5.58
2018-09-17T04:14:48.130Z,5.54
2018-09-17T04:15:54.779Z,5.54
2018-09-17T04:17:00.457Z,5.54
2018-09-17T04:18:07.119Z,5.56
2018-09-17T04:19:13.788Z,5.57
2018-09-17T04:20:18.939Z,5.58
2018-09-17T04:21:25.109Z,5.59
2018-09-17T04:22:31.266Z,5.56
2018-09-17T04:23:37.931Z,5.56
2018-09-17T04:24:43.595Z,5.58
2018-09-17T04:25:50.239Z,5.58
2018-09-17T04:26:55.922Z,5.62
2018-09-17T04:28:02.073Z,5.63
2018-09-17T04:29:08.740Z,5.62
2018-09-17T04:30:14.397Z,5.63
2018-09-17T04:31:21.056Z,5.67
2018-09-17T04:32:26.732Z,5.72
2018-09-17T04:33:32.892Z,5.76
2018-09-17T04:34:39.041Z,5.77
2018-09-17T04:35:45.693Z,5.74
2018-09-17T04:36:51.361Z,5.66
2018-09-17T04:37:58.012Z,5.60
2018-09-17T04:39:04.187Z,5.55
2018-09-17T04:40:09.857Z,5.51
2018-09-17T04:41:15.993Z,5.47
2018-09-17T04:42:22.163Z,5.46
2018-09-17T04:43:28.324Z,5.53
2018-09-17T04:44:34.979Z,5.61
2018-09-17T04:45:40.637Z,5.60
2018-09-17T04:46:47.300Z,5.58
2018-09-17T04:47:53.450Z,5.59
2018-09-17T04:48:59.121Z,5.57
2018-09-17T04:50:05.261Z,5.53
2018-09-17T04:51:11.911Z,5.53
2018-09-17T04:52:18.085Z,5.56
2018-09-17T04:53:24.238Z,5.55
2018-09-17T04:54:29.909Z,5.48
2018-09-17T04:55:36.062Z,5.44
2018-09-17T04:56:42.718Z,5.36
2018-09-17T04:57:48.872Z,5.29
2018-09-17T04:58:55.033Z,5.26
2018-09-17T05:00:01.274Z,5.27
2018-09-17T05:01:07.353Z,5.27
2018-09-17T05:02:13.824Z,5.29
2018-09-17T05:03:19.659Z,5.27
2018-09-17T05:04:25.827Z,5.24
2018-09-17T05:05:31.971Z,5.31
2018-09-17T05:06:38.125Z,5.31
2018-09-17T05:07:44.276Z,5.34
2018-09-17T05:08:49.934Z,5.39
2018-09-17T05:09:56.089Z,5.40
2018-09-17T05:11:02.239Z,5.44
2018-09-17T05:12:08.896Z,5.50
2018-09-17T05:13:15.124Z,5.54
2018-09-17T05:14:21.284Z,5.57
2018-09-17T05:15:26.878Z,5.55
2018-09-17T05:16:33.031Z,5.57
2018-09-17T05:17:39.692Z,5.61
2018-09-17T05:18:45.846Z,5.63
2018-09-17T05:19:51.513Z,5.68
2018-09-17T05:20:57.665Z,5.63
2018-09-17T05:22:04.311Z,5.59
2018-09-17T05:23:10.460Z,5.57
2018-09-17T05:24:16.634Z,5.56
2018-09-17T05:25:22.795Z,5.58
2018-09-17T05:26:28.434Z,5.66
2018-09-17T05:27:35.097Z,5.80
2018-09-17T05:28:41.273Z,5.87
2018-09-17T05:29:47.425Z,5.82
2018-09-17T05:30:53.086Z,5.75
2018-09-17T05:31:59.250Z,5.72
2018-09-17T05:33:05.899Z,5.86
2018-09-17T05:34:12.061Z,5.84
2018-09-17T05:35:17.736Z,5.82
2018-09-17T05:36:23.886Z,5.82
2018-09-17T05:37:30.048Z,5.82
2018-09-17T05:38:36.711Z,5.81
2018-09-17T05:39:42.375Z,5.81
2018-09-17T05:40:48.545Z,5.84
2018-09-17T05:41:55.271Z,5.85
2018-09-17T05:43:00.880Z,5.88
2018-09-17T05:44:07.529Z,5.91
2018-09-17T05:45:13.700Z,5.97
2018-09-17T05:46:19.427Z,6.01
2018-09-17T05:47:26.026Z,6.04
2018-09-17T05:48:32.199Z,6.06
2018-09-17T05:49:37.876Z,6.03
2018-09-17T05:50:44.529Z,6.01
2018-09-17T05:51:50.690Z,6.03
2018-09-17T05:52:56.884Z,6.05
2018-09-17T05:54:02.539Z,6.09
2018-09-17T05:55:09.273Z,6.14
2018-09-17T05:56:15.377Z,6.19
2018-09-17T05:57:21.557Z,6.37
2018-09-17T05:58:27.241Z,6.60
2018-09-17T05:59:33.961Z,6.69
2018-09-17T06:00:40.072Z,6.66
2018-09-17T06:01:45.749Z,6.64
2018-09-17T06:02:52.883Z,6.65
2018-09-17T06:03:58.098Z,6.70
2018-09-17T06:05:04.269Z,6.75
2018-09-17T06:06:10.967Z,6.79
2018-09-17T06:07:17.140Z,6.91
2018-09-17T06:08:23.317Z,7.05
2018-09-17T06:09:29.007Z,7.14
2018-09-17T06:10:35.332Z,7.19
2018-09-17T06:11:41.393Z,7.19
2018-09-17T06:12:47.746Z,7.20
2018-09-17T06:13:54.240Z,7.18
2018-09-17T06:15:00.423Z,7.19
2018-09-17T06:16:06.126Z,7.24
2018-09-17T06:17:12.351Z,7.29
2018-09-17T06:18:18.984Z,7.34
2018-09-17T06:19:24.689Z,7.44
2018-09-17T06:20:30.882Z,7.45
2018-09-17T06:21:37.088Z,7.49
2018-09-17T06:22:43.807Z,7.50
2018-09-17T06:23:49.959Z,7.50
2018-09-17T06:24:56.160Z,7.53
2018-09-17T06:26:02.351Z,7.55
2018-09-17T06:27:08.063Z,7.59
2018-09-17T06:28:14.745Z,7.65
2018-09-17T06:29:20.454Z,7.71
2018-09-17T06:30:26.675Z,7.75
2018-09-17T06:31:32.897Z,7.79
2018-09-17T06:32:39.065Z,7.85
2018-09-17T06:33:45.772Z,7.91
2018-09-17T06:34:51.979Z,7.97
2018-09-17T06:35:58.177Z,8.05
2018-09-17T06:37:04.104Z,8.11
2018-09-17T06:38:10.129Z,8.22
2018-09-17T06:39:16.326Z,8.33
2018-09-17T06:40:23.026Z,8.43
2018-09-17T06:41:28.777Z,8.43
2018-09-17T06:42:35.160Z,8.42
2018-09-17T06:43:41.279Z,8.45
2018-09-17T06:44:47.454Z,8.48
2018-09-17T06:45:54.114Z,8.52
2018-09-17T06:47:00.338Z,8.55
2018-09-17T06:48:06.082Z,8.56
2018-09-17T06:49:12.300Z,8.63
2018-09-17T06:50:19.009Z,8.68
2018-09-17T06:51:24.807Z,8.78
2018-09-17T06:52:31.486Z,8.82
2018-09-17T06:53:37.217Z,8.85
2018-09-17T06:54:43.437Z,8.89
2018-09-17T06:55:49.678Z,8.95
2018-09-17T06:56:55.917Z,9.01
2018-09-17T06:58:02.149Z,9.07
2018-09-17T06:59:08.885Z,9.10
2018-09-17T07:00:14.633Z,9.13
2018-09-17T07:01:21.348Z,9.19
2018-09-17T07:02:27.141Z,9.24
2018-09-17T07:03:33.353Z,9.28
2018-09-17T07:04:40.094Z,9.35
2018-09-17T07:05:45.849Z,9.41
2018-09-17T07:06:52.113Z,9.48
2018-09-17T07:07:58.341Z,9.54
2018-09-17T07:09:04.596Z,9.63
2018-09-17T07:10:10.835Z,9.70
2018-09-17T07:11:17.098Z,9.72
2018-09-17T07:12:23.352Z,9.74
2018-09-17T07:13:29.598Z,9.77
2018-09-17T07:14:36.332Z,9.80
2018-09-17T07:15:42.592Z,9.88
2018-09-17T07:16:48.858Z,9.88
2018-09-17T07:17:55.146Z,9.88
2018-09-17T07:19:00.874Z,9.87
2018-09-17T07:20:07.642Z,9.90
2018-09-17T07:21:13.881Z,9.91
2018-09-17T07:22:19.663Z,9.96
2018-09-17T07:23:25.928Z,10.02
2018-09-17T07:24:32.196Z,10.06
2018-09-17T07:25:38.944Z,10.15
2018-09-17T07:26:44.715Z,10.25
2018-09-17T07:27:50.992Z,10.31
2018-09-17T07:28:57.771Z,10.37
2018-09-17T07:30:04.047Z,10.39
2018-09-17T07:31:10.343Z,10.43
2018-09-17T07:32:16.594Z,10.49
2018-09-17T07:33:22.383Z,10.52
2018-09-17T07:34:28.652Z,10.56
2018-09-17T07:35:35.406Z,10.62
2018-09-17T07:36:41.777Z,10.66
2018-09-17T07:37:47.984Z,10.71
2018-09-17T07:38:53.773Z,10.76
2018-09-17T07:40:00.057Z,10.78
2018-09-17T07:41:06.335Z,10.81
2018-09-17T07:42:12.616Z,10.89
2018-09-17T07:43:19.412Z,10.98
2018-09-17T07:44:25.202Z,10.98
2018-09-17T07:45:31.479Z,11.03
2018-09-17T07:46:38.276Z,11.05
2018-09-17T07:47:44.119Z,11.07
2018-09-17T07:48:50.855Z,11.10
2018-09-17T07:49:57.159Z,11.15
2018-09-17T07:51:03.448Z,11.27
2018-09-17T07:52:09.739Z,11.33
2018-09-17T07:53:15.602Z,11.36
2018-09-17T07:54:21.875Z,11.45
2018-09-17T07:55:28.644Z,11.47
2018-09-17T07:56:34.958Z,11.47
2018-09-17T07:57:40.757Z,11.54
2018-09-17T07:58:47.582Z,11.61
2018-09-17T07:59:53.365Z,11.65
2018-09-17T08:01:00.170Z,11.76
2018-09-17T08:02:06.488Z,11.96
2018-09-17T08:03:12.362Z,12.05
2018-09-17T08:04:18.618Z,12.04
2018-09-17T08:05:24.931Z,12.07
2018-09-17T08:06:31.739Z,12.16
2018-09-17T08:07:38.062Z,12.25
2018-09-17T08:08:43.902Z,12.29
2018-09-17T08:09:50.187Z,12.35
2018-09-17T08:10:57.008Z,12.38
2018-09-17T08:12:02.846Z,12.41
2018-09-17T08:13:09.278Z,12.47
2018-09-17T08:14:15.492Z,12.52
2018-09-17T08:15:22.311Z,12.60
2018-09-17T08:16:28.631Z,12.63
2018-09-17T08:17:34.481Z,12.69
2018-09-17T08:18:40.839Z,12.86
2018-09-17T08:19:48.705Z,13.03
2018-09-17T08:20:53.516Z,13.24
2018-09-17T08:21:59.862Z,13.37
2018-09-17T08:23:06.207Z,13.45
2018-09-17T08:24:13.073Z,13.53
2018-09-17T08:25:18.936Z,13.56
2018-09-17T08:26:25.293Z,13.57
2018-09-17T08:27:31.673Z,13.65
2018-09-17T08:28:38.090Z,13.70
2018-09-17T08:29:44.387Z,13.74
2018-09-17T08:30:51.272Z,13.84
2018-09-17T08:31:57.335Z,13.90
2018-09-17T08:33:04.019Z,13.98
2018-09-17T08:34:09.908Z,14.08
2018-09-17T08:35:16.774Z,14.20
2018-09-17T08:36:22.667Z,14.23
2018-09-17T08:37:29.544Z,14.25
2018-09-17T08:38:35.438Z,14.24
2018-09-17T08:39:41.848Z,14.28
2018-09-17T08:40:48.277Z,14.35
2018-09-17T08:41:55.124Z,14.41
2018-09-17T08:43:02.535Z,14.45
2018-09-17T08:44:07.463Z,14.57
2018-09-17T08:45:13.866Z,14.62
2018-09-17T08:46:20.773Z,14.68
2018-09-17T08:47:27.273Z,14.82
2018-09-17T08:48:33.615Z,14.97
2018-09-17T08:49:39.570Z,15.08
2018-09-17T08:50:45.964Z,15.19
2018-09-17T08:51:52.887Z,15.31
2018-09-17T08:52:58.862Z,15.38
2018-09-17T08:54:05.270Z,15.44
2018-09-17T08:55:11.699Z,15.48
2018-09-17T08:56:18.143Z,15.55
2018-09-17T08:57:24.586Z,15.61
2018-09-17T08:58:31.031Z,15.68
2018-09-17T08:59:37.495Z,15.81
2018-09-17T09:00:44.422Z,15.95
2018-09-17T09:01:50.383Z,16.02
2018-09-17T09:02:56.861Z,16.03
2018-09-17T09:04:03.376Z,16.04
2018-09-17T09:05:09.839Z,16.06
2018-09-17T09:06:16.246Z,16.12
2018-09-17T09:07:22.709Z,16.14
2018-09-17T09:08:29.278Z,16.19
2018-09-17T09:09:35.697Z,16.32
2018-09-17T09:10:42.137Z,16.40
2018-09-17T09:11:48.616Z,16.42
2018-09-17T09:12:55.103Z,16.44
2018-09-17T09:14:01.579Z,16.46
2018-09-17T09:15:08.069Z,16.47
2018-09-17T09:16:15.043Z,16.52
2018-09-17T09:17:21.558Z,16.65
2018-09-17T09:18:27.543Z,16.83
2018-09-17T09:19:34.073Z,16.85
2018-09-17T09:20:41.049Z,16.89
2018-09-17T09:21:47.043Z,16.93
2018-09-17T09:22:53.548Z,16.92
2018-09-17T09:24:00.541Z,16.96
2018-09-17T09:25:06.556Z,17.07
2018-09-17T09:26:13.060Z,17.15
2018-09-17T09:27:19.562Z,17.22
2018-09-17T09:28:26.084Z,17.26
2018-09-17T09:29:32.583Z,17.31
2018-09-17T09:30:39.095Z,17.33
2018-09-17T09:31:45.602Z,17.37
2018-09-17T09:32:52.110Z,17.43
2018-09-17T09:33:59.134Z,17.40
2018-09-17T09:35:05.643Z,17.44
2018-09-17T09:36:12.154Z,17.49
2018-09-17T09:37:18.185Z,17.52
2018-09-17T09:38:24.723Z,17.60
2018-09-17T09:39:31.729Z,17.72
2018-09-17T09:40:38.248Z,17.82
2018-09-17T09:41:44.275Z,17.90
2018-09-17T09:42:51.288Z,17.95
2018-09-17T09:43:57.813Z,17.97
2018-09-17T09:45:04.351Z,18.02
2018-09-17T09:46:10.392Z,18.13
2018-09-17T09:47:16.923Z,18.21
2018-09-17T09:48:23.448Z,18.29
2018-09-17T09:49:30.488Z,18.38
2018-09-17T09:50:36.534Z,18.38
2018-09-17T09:51:43.081Z,18.38
2018-09-17T09:52:49.669Z,18.44
2018-09-17T09:53:56.159Z,18.51
2018-09-17T09:55:02.704Z,18.53
2018-09-17T09:56:09.757Z,18.53
2018-09-17T09:57:15.807Z,18.58
2018-09-17T09:58:22.355Z,18.64
2018-09-17T09:59:28.923Z,18.77
2018-09-17T10:00:35.974Z,18.84
2018-09-17T10:01:42.028Z,18.95
2018-09-17T10:02:49.075Z,19.03
2018-09-17T10:03:55.147Z,19.12
2018-09-17T10:05:01.711Z,19.28
2018-09-17T10:06:08.288Z,19.39
2018-09-17T10:07:14.847Z,19.47
2018-09-17T10:08:21.430Z,19.60
2018-09-17T10:09:28.012Z,19.73
2018-09-17T10:10:34.591Z,19.83
2018-09-17T10:11:41.748Z,19.88
2018-09-17T10:12:48.258Z,20.01
2018-09-17T10:13:54.347Z,20.10
2018-09-17T10:15:00.946Z,20.16
2018-09-17T10:16:07.544Z,20.22
2018-09-17T10:17:14.136Z,20.31
2018-09-17T10:18:20.722Z,20.42
2018-09-17T10:19:28.353Z,20.47
2018-09-17T10:20:33.923Z,20.59
2018-09-17T10:21:41.035Z,20.78
2018-09-17T10:22:47.139Z,20.89
2018-09-17T10:23:54.273Z,20.90
2018-09-17T10:25:00.374Z,20.88
2018-09-17T10:26:06.990Z,20.90
2018-09-17T10:27:14.110Z,21.04
2018-09-17T10:28:20.229Z,21.19
2018-09-17T10:29:27.357Z,21.31
2018-09-17T10:30:33.977Z,21.43
2018-09-17T10:31:40.132Z,21.45
2018-09-17T10:32:46.748Z,21.45
2018-09-17T10:33:53.867Z,21.40
2018-09-17T10:35:00.016Z,21.36
2018-09-17T10:36:07.149Z,21.40
2018-09-17T10:37:13.798Z,21.50
2018-09-17T10:38:19.912Z,21.55
2018-09-17T10:39:26.622Z,21.64
2018-09-17T10:40:33.208Z,21.68
2018-09-17T10:41:39.855Z,21.69
2018-09-17T10:42:46.704Z,21.73
2018-09-17T10:43:53.638Z,21.86
2018-09-17T10:45:00.298Z,21.96
2018-09-17T10:46:06.452Z,22.15
2018-09-17T10:47:13.124Z,22.32
2018-09-17T10:48:19.777Z,22.45
2018-09-17T10:49:26.442Z,22.56
2018-09-17T10:50:33.117Z,22.62
2018-09-17T10:51:40.277Z,22.68
2018-09-17T10:52:46.963Z,22.74
2018-09-17T10:53:53.274Z,22.75
2018-09-17T10:54:59.832Z,22.80
2018-09-17T10:56:06.533Z,22.90
2018-09-17T10:57:13.236Z,22.93
2018-09-17T10:58:19.900Z,22.98
2018-09-17T10:59:26.589Z,23.02
2018-09-17T11:00:33.274Z,23.12
2018-09-17T11:01:39.971Z,23.22
2018-09-17T11:02:46.675Z,23.26
2018-09-17T11:03:53.362Z,23.34
2018-09-17T11:05:00.566Z,23.40
2018-09-17T11:06:06.773Z,23.50
2018-09-17T11:07:13.993Z,23.58
2018-09-17T11:08:21.379Z,23.63
2018-09-17T11:09:27.402Z,23.66
2018-09-17T11:10:34.130Z,23.67
2018-09-17T11:11:40.350Z,23.68
2018-09-17T11:12:47.578Z,23.72
2018-09-17T11:13:54.311Z,23.78
2018-09-17T11:15:00.532Z,23.92
2018-09-17T11:16:07.249Z,23.98
2018-09-17T11:17:14.025Z,24.03
2018-09-17T11:18:20.732Z,24.09
2018-09-17T11:19:27.465Z,24.17
2018-09-17T11:20:34.732Z,24.20
2018-09-17T11:21:41.018Z,24.25
2018-09-17T11:22:47.827Z,24.37
2018-09-17T11:23:55.266Z,24.48
2018-09-17T11:25:02.201Z,24.59
2018-09-17T11:26:09.046Z,24.65
2018-09-17T11:27:16.023Z,24.73
2018-09-17T11:28:22.533Z,24.75
2018-09-17T11:29:29.566Z,24.77
2018-09-17T11:30:36.622Z,24.87
2018-09-17T11:31:43.687Z,24.92
2018-09-17T11:32:50.807Z,24.94
2018-09-17T11:33:57.925Z,24.95
2018-09-17T11:35:05.053Z,24.95
2018-09-17T11:36:12.245Z,25.01
2018-09-17T11:37:19.416Z,25.17
2018-09-17T11:38:26.643Z,25.27
2018-09-17T11:39:33.872Z,25.33
2018-09-17T11:40:41.121Z,25.39
2018-09-17T11:41:48.398Z,25.54
2018-09-17T11:42:55.676Z,25.66
2018-09-17T11:44:02.969Z,25.76
2018-09-17T11:45:10.268Z,25.84
2018-09-17T11:46:17.608Z,25.98
2018-09-17T11:47:24.959Z,26.09
2018-09-17T11:48:32.353Z,26.14
2018-09-17T11:49:40.192Z,26.19
2018-09-17T11:50:47.071Z,26.21
2018-09-17T11:51:54.920Z,26.26
2018-09-17T11:53:02.344Z,26.28
2018-09-17T11:54:09.759Z,26.26
2018-09-17T11:55:17.140Z,26.35
2018-09-17T11:56:24.070Z,26.45
2018-09-17T11:57:31.486Z,26.59
2018-09-17T11:58:38.894Z,26.67
2018-09-17T11:59:46.811Z,26.73
2018-09-17T12:00:53.758Z,26.83
2018-09-17T12:02:01.209Z,26.83
2018-09-17T12:03:08.652Z,26.94
2018-09-17T12:04:16.119Z,27.09
2018-09-17T12:05:24.065Z,27.21
2018-09-17T12:06:31.029Z,27.22
2018-09-17T12:07:38.459Z,27.15
2018-09-17T12:08:45.926Z,27.11
2018-09-17T12:09:53.376Z,27.17
2018-09-17T12:11:00.829Z,27.30
2018-09-17T12:12:08.313Z,27.45
2018-09-17T12:13:15.785Z,27.60
2018-09-17T12:14:23.374Z,27.62
2018-09-17T12:15:30.770Z,27.64
2018-09-17T12:16:38.324Z,27.65
2018-09-17T12:17:45.764Z,27.67
2018-09-17T12:18:53.302Z,27.69
2018-09-17T12:20:00.782Z,27.61
2018-09-17T12:21:08.265Z,27.50
2018-09-17T12:22:15.716Z,27.48
2018-09-17T12:23:23.280Z,27.52
2018-09-17T12:24:30.943Z,27.48
2018-09-17T12:25:38.551Z,27.50
2018-09-17T12:26:45.973Z,27.48
2018-09-17T12:27:53.406Z,27.48
2018-09-17T12:29:00.326Z,27.44
2018-09-17T12:30:07.723Z,27.44
2018-09-17T12:31:15.628Z,27.48
2018-09-17T12:32:23.034Z,27.43
2018-09-17T12:33:29.989Z,27.42
2018-09-17T12:34:37.344Z,27.36
2018-09-17T12:35:45.222Z,27.44
2018-09-17T12:36:52.638Z,27.55
2018-09-17T12:38:00.036Z,27.63
2018-09-17T12:39:07.453Z,27.77
2018-09-17T12:40:14.832Z,27.69
2018-09-17T12:41:21.725Z,27.70
2018-09-17T12:42:29.120Z,27.60
2018-09-17T12:43:37.013Z,27.64
2018-09-17T12:44:43.917Z,27.75
2018-09-17T12:45:51.292Z,27.79
2018-09-17T12:46:59.275Z,27.81
2018-09-17T12:48:06.070Z,27.87
2018-09-17T12:49:13.460Z,27.92
2018-09-17T12:50:20.862Z,27.93
2018-09-17T12:51:28.250Z,27.95
2018-09-17T12:52:35.640Z,27.98
2018-09-17T12:53:43.554Z,27.92
2018-09-17T12:54:50.464Z,27.91
2018-09-17T12:55:57.854Z,27.96
2018-09-17T12:57:05.267Z,27.97
2018-09-17T12:58:12.694Z,27.93
2018-09-17T12:59:20.072Z,27.92
2018-09-17T13:00:27.509Z,27.84
2018-09-17T13:01:34.876Z,27.75
2018-09-17T13:02:42.749Z,27.73
2018-09-17T13:03:49.654Z,27.61
2018-09-17T13:04:57.053Z,27.56
2018-09-17T13:06:04.433Z,27.53
2018-09-17T13:07:12.321Z,27.47
2018-09-17T13:08:19.687Z,27.48
2018-09-17T13:09:27.044Z,27.48
2018-09-17T13:10:33.924Z,27.33
2018-09-17T13:11:41.256Z,27.18
2018-09-17T13:12:48.583Z,27.18
2018-09-17T13:13:56.393Z,27.13
2018-09-17T13:15:03.206Z,27.10
2018-09-17T13:16:10.975Z,27.08
2018-09-17T13:17:17.758Z,27.12
2018-09-17T13:18:25.045Z,27.17
2018-09-17T13:19:32.327Z,27.21
2018-09-17T13:20:39.597Z,27.21
2018-09-17T13:21:46.873Z,27.19
2018-09-17T13:22:54.643Z,27.20
2018-09-17T13:24:01.435Z,27.13
2018-09-17T13:25:09.228Z,27.18
2018-09-17T13:26:16.046Z,27.35
2018-09-17T13:27:23.843Z,27.40
2018-09-17T13:28:30.652Z,27.46
2018-09-17T13:29:38.483Z,27.50
2018-09-17T13:30:45.311Z,27.48
2018-09-17T13:31:53.210Z,27.51
2018-09-17T13:32:59.961Z,27.58
2018-09-17T13:34:07.313Z,27.72
2018-09-17T13:35:14.682Z,27.88
2018-09-17T13:36:22.505Z,27.98
2018-09-17T13:37:29.388Z,28.08
2018-09-17T13:38:37.305Z,28.17
2018-09-17T13:39:44.132Z,28.21
2018-09-17T13:40:52.024Z,28.31
2018-09-17T13:41:58.948Z,28.44
2018-09-17T13:43:06.350Z,28.57
2018-09-17T13:44:13.792Z,28.67
2018-09-17T13:45:21.171Z,28.75
2018-09-17T13:47:36.062Z,28.90
2018-09-17T13:48:43.499Z,28.83
2018-09-17T13:49:51.425Z,28.81
2018-09-17T13:50:58.387Z,28.81
2018-09-17T13:52:05.846Z,28.91
2018-09-17T13:53:13.442Z,29.09
2018-09-17T13:54:21.287Z,29.14
2018-09-17T13:55:28.784Z,29.25
2018-09-17T13:56:35.716Z,29.33
2018-09-17T13:57:43.298Z,29.26
2018-09-17T13:58:52.090Z,29.17
2018-09-17T13:59:58.126Z,29.23
2018-09-17T14:01:05.604Z,29.32
2018-09-17T14:02:13.084Z,29.38
2018-09-17T14:03:20.565Z,29.41
2018-09-17T14:04:28.205Z,29.38
2018-09-17T14:05:36.044Z,29.39
2018-09-17T14:06:43.565Z,29.50
2018-09-17T14:07:51.062Z,29.66
2018-09-17T14:08:58.591Z,29.70
2018-09-17T14:10:06.150Z,29.75
2018-09-17T14:11:13.130Z,29.83
2018-09-17T14:12:20.644Z,29.97
2018-09-17T14:13:28.285Z,30.10
2018-09-17T14:14:35.690Z,30.13
2018-09-17T14:15:43.200Z,30.19
2018-09-17T14:16:50.747Z,30.06
2018-09-17T14:17:58.260Z,29.83
2018-09-17T14:19:06.284Z,29.74
2018-09-17T14:20:13.836Z,29.82
2018-09-17T14:21:20.875Z,29.99
2018-09-17T14:22:28.924Z,29.96
2018-09-17T14:23:35.995Z,29.96
2018-09-17T14:24:43.554Z,30.10
2018-09-17T14:25:51.189Z,30.18
2018-09-17T14:26:59.139Z,30.27
2018-09-17T14:28:06.196Z,30.32
2018-09-17T14:29:13.755Z,30.44
2018-09-17T14:30:21.285Z,30.59
2018-09-17T14:31:28.841Z,30.72
2018-09-17T14:32:36.573Z,30.84